PWSweather.com
Personal Weather Stations
Station Observations
BLACKWELL
Blackwell, AlfretonGB DE55

BlackwellAlfretonGB DE55

Lat: 53.12076, Lon: -1.354978

Elevation: 410

Station Type: Vantage Pro

High Low Average
Temperature 50.0°F10.0°C 37.6°F3.1°C 42.0°F5.6°C
Dew Point 39.9°F4.4°C 34.5°F1.4°C 36.6°F2.6°C
Winds 4.0 mph 6.4 kmh Calm Calm 2.0 mph SW3.2 kmh SW
Wind Gusts 11.0 mph17.7 kmh 2.0 mph3.2 kmh 6.0 mph9.7 kmh
Humidity 90% 64% 81%
Pressure 29.44 in997.0 mb 29.04 in983.4 mb -
Precipitation 0.02 in0.5 mm - -
Hour Temp Dew Point Humidity Winds Wind Gusts Pressure Precip Precip Rate Daily Precip Total
12:44 AM 40.3°F4.6°C 36.1°F2.3°C 85% 3.0 mph SW4.8 kmh SW 10.0 mph16.1 kmh 29.04 in983.4 mb 0.00 in0.0 mm 0.00 in0.0 mm 0.00 in0.0 mm
01:44 AM 40.6°F4.8°C 36.9°F2.7°C 86% Calm Calm 3.0 mph4.8 kmh 29.06 in984.1 mb 0.00 in0.0 mm 0.00 in0.0 mm 0.00 in0.0 mm
02:44 AM 39.0°F3.9°C 35.4°F1.9°C 87% 2.0 mph SW3.2 kmh SW 7.0 mph11.3 kmh 29.06 in984.1 mb 0.01 in0.3 mm 0.00 in0.0 mm 0.01 in0.3 mm
03:44 AM 37.9°F3.3°C 34.7°F1.5°C 88% 1.0 mph SW1.6 kmh SW 3.0 mph4.8 kmh 29.06 in984.1 mb 0.00 in0.0 mm 0.00 in0.0 mm 0.01 in0.3 mm
04:44 AM 38.3°F3.5°C 35.6°F2.0°C 90% 1.0 mph SW1.6 kmh SW 4.0 mph6.4 kmh 29.07 in984.4 mb 0.00 in0.0 mm 0.00 in0.0 mm 0.01 in0.3 mm
05:44 AM 39.4°F4.1°C 36.7°F2.6°C 90% 1.0 mph SW1.6 kmh SW 4.0 mph6.4 kmh 29.10 in985.4 mb 0.00 in0.0 mm 0.00 in0.0 mm 0.01 in0.3 mm
06:44 AM 40.6°F4.8°C 36.9°F2.7°C 86% 1.0 mph SW1.6 kmh SW 4.0 mph6.4 kmh 29.13 in986.5 mb 0.00 in0.0 mm 0.00 in0.0 mm 0.01 in0.3 mm
07:44 AM 40.6°F4.8°C 36.5°F2.5°C 85% Calm Calm 3.0 mph4.8 kmh 29.16 in987.5 mb 0.00 in0.0 mm 0.00 in0.0 mm 0.01 in0.3 mm
08:44 AM 41.5°F5.3°C 36.9°F2.7°C 83% 2.0 mph SW3.2 kmh SW 8.0 mph12.9 kmh 29.20 in988.8 mb 0.00 in0.0 mm 0.00 in0.0 mm 0.01 in0.3 mm
09:44 AM 43.0°F6.1°C 37.2°F2.9°C 80% 2.0 mph WSW3.2 kmh WSW 6.0 mph9.7 kmh 29.24 in990.2 mb 0.00 in0.0 mm 0.00 in0.0 mm 0.01 in0.3 mm
10:44 AM 46.0°F7.8°C 37.4°F3.0°C 72% 3.0 mph SW4.8 kmh SW 8.0 mph12.9 kmh 29.25 in990.5 mb 0.00 in0.0 mm 0.00 in0.0 mm 0.01 in0.3 mm
11:44 AM 47.1°F8.4°C 37.0°F2.8°C 68% 4.0 mph SW6.4 kmh SW 9.0 mph14.5 kmh 29.27 in991.2 mb 0.00 in0.0 mm 0.00 in0.0 mm 0.01 in0.3 mm
12:44 PM 50.0°F10.0°C 38.3°F3.5°C 64% 4.0 mph SW6.4 kmh SW 9.0 mph14.5 kmh 29.27 in991.2 mb 0.00 in0.0 mm 0.00 in0.0 mm 0.01 in0.3 mm
01:44 PM 48.0°F8.9°C 38.1°F3.4°C 68% 2.0 mph SW3.2 kmh SW 9.0 mph14.5 kmh 29.28 in991.5 mb 0.00 in0.0 mm 0.00 in0.0 mm 0.01 in0.3 mm
02:44 PM 45.5°F7.5°C 39.4°F4.1°C 79% 3.0 mph WSW4.8 kmh WSW 11.0 mph17.7 kmh 29.29 in991.9 mb 0.00 in0.0 mm 0.00 in0.0 mm 0.01 in0.3 mm
03:44 PM 46.0°F7.8°C 39.9°F4.4°C 79% 4.0 mph WSW6.4 kmh WSW 8.0 mph12.9 kmh 29.30 in992.2 mb 0.00 in0.0 mm 0.00 in0.0 mm 0.01 in0.3 mm
04:44 PM 45.0°F7.2°C 37.8°F3.2°C 76% 4.0 mph SW6.4 kmh SW 10.0 mph16.1 kmh 29.32 in992.9 mb 0.00 in0.0 mm 0.00 in0.0 mm 0.01 in0.3 mm
05:44 PM 42.8°F6.0°C 36.5°F2.5°C 78% 2.0 mph SW3.2 kmh SW 10.0 mph16.1 kmh 29.34 in993.6 mb 0.00 in0.0 mm 0.00 in0.0 mm 0.01 in0.3 mm
06:44 PM 41.5°F5.3°C 37.0°F2.8°C 84% 2.0 mph SW3.2 kmh SW 6.0 mph9.7 kmh 29.36 in994.2 mb 0.01 in0.3 mm 0.00 in0.0 mm 0.02 in0.5 mm
07:44 PM 41.2°F5.1°C 35.8°F2.1°C 81% 3.0 mph WSW4.8 kmh WSW 7.0 mph11.3 kmh 29.37 in994.6 mb 0.00 in0.0 mm 0.00 in0.0 mm 0.02 in0.5 mm
08:44 PM 39.9°F4.4°C 34.9°F1.6°C 82% 1.0 mph WSW1.6 kmh WSW 6.0 mph9.7 kmh 29.40 in995.6 mb 0.00 in0.0 mm 0.00 in0.0 mm 0.02 in0.5 mm
09:44 PM 39.0°F3.9°C 34.9°F1.6°C 85% Calm Calm 3.0 mph4.8 kmh 29.42 in996.3 mb 0.00 in0.0 mm 0.00 in0.0 mm 0.02 in0.5 mm
10:44 PM 37.9°F3.3°C 34.5°F1.4°C 87% Calm Calm 2.0 mph3.2 kmh 29.44 in997.0 mb 0.00 in0.0 mm 0.00 in0.0 mm 0.02 in0.5 mm
11:44 PM 37.6°F3.1°C 34.5°F1.4°C 89% Calm Calm 2.0 mph3.2 kmh 29.44 in997.0 mb 0.00 in0.0 mm 0.00 in0.0 mm 0.02 in0.5 mm